createdAt,value
2022-12-22T00:01:39.467Z,11.52
2022-12-22T00:04:28.995Z,12.68
2022-12-22T00:07:15.643Z,13.40
2022-12-22T00:10:02.271Z,13.20
2022-12-22T00:12:48.888Z,16.33
2022-12-22T00:15:36.582Z,10.45
2022-12-22T00:18:24.933Z,12.50
2022-12-22T00:21:11.932Z,12.43
2022-12-22T00:23:58.896Z,12.95
2022-12-22T00:26:46.613Z,14.02
2022-12-22T00:29:33.708Z,13.82
2022-12-22T00:32:20.915Z,13.13
2022-12-22T00:35:09.228Z,12.52
2022-12-22T00:37:56.761Z,12.43
2022-12-22T00:40:45.825Z,11.73
2022-12-22T00:43:32.883Z,12.15
2022-12-22T00:46:21.273Z,11.60
2022-12-22T00:49:08.177Z,13.77
2022-12-22T00:51:56.796Z,10.63
2022-12-22T00:54:44.834Z,19.63
2022-12-22T00:57:35.036Z,13.32
2022-12-22T01:00:22.159Z,10.85
2022-12-22T01:03:08.996Z,15.32
2022-12-22T01:05:55.644Z,13.02
2022-12-22T01:08:44.510Z,10.88
2022-12-22T01:11:30.967Z,10.77
2022-12-22T01:14:17.608Z,13.18
2022-12-22T01:17:04.222Z,13.05
2022-12-22T01:19:50.675Z,8.70
2022-12-22T01:22:40.128Z,10.55
2022-12-22T01:25:33.096Z,9.48
2022-12-22T01:28:20.009Z,10.70
2022-12-22T01:31:07.186Z,10.90
2022-12-22T01:33:54.306Z,9.82
2022-12-22T01:36:41.054Z,13.32
2022-12-22T01:39:28.196Z,9.48
2022-12-22T01:42:16.359Z,13.75
2022-12-22T01:45:02.948Z,12.98
2022-12-22T01:47:51.236Z,12.52
2022-12-22T01:50:41.278Z,10.63
2022-12-22T01:53:29.752Z,11.40
2022-12-22T01:56:17.120Z,10.00
2022-12-22T01:59:06.379Z,9.05
2022-12-22T02:01:54.973Z,11.25
2022-12-22T02:04:43.942Z,12.90
2022-12-22T02:07:36.756Z,12.52
2022-12-22T02:10:31.642Z,13.25
2022-12-22T02:13:21.765Z,10.52
2022-12-22T02:16:11.632Z,10.77
2022-12-22T02:19:00.545Z,10.93
2022-12-22T02:21:49.320Z,9.35
2022-12-22T02:24:44.089Z,9.77
2022-12-22T02:27:32.454Z,13.30
2022-12-22T02:30:21.072Z,12.85
2022-12-22T02:33:10.113Z,10.05
2022-12-22T02:36:03.591Z,14.13
2022-12-22T02:38:53.899Z,12.15
2022-12-22T02:41:49.008Z,10.50
2022-12-22T02:44:42.745Z,12.38
2022-12-22T02:47:33.467Z,9.85
2022-12-22T02:50:24.038Z,10.13
2022-12-22T02:53:11.846Z,16.45
2022-12-22T02:55:58.733Z,11.23
2022-12-22T02:58:45.594Z,12.23
2022-12-22T03:01:33.887Z,12.25
2022-12-22T03:04:20.456Z,11.40
2022-12-22T03:07:07.119Z,10.23
2022-12-22T03:09:54.055Z,13.48
2022-12-22T03:12:40.839Z,13.20
2022-12-22T03:15:28.078Z,9.77
2022-12-22T03:18:19.880Z,11.52
2022-12-22T03:21:06.457Z,10.57
2022-12-22T03:23:53.463Z,11.15
2022-12-22T03:26:22.486Z,14.38
2022-12-22T03:28:51.799Z,12.43
2022-12-22T03:31:21.324Z,12.52
2022-12-22T03:33:52.069Z,11.27
2022-12-22T03:36:21.241Z,18.25
2022-12-22T03:41:39.756Z,12.93
2022-12-22T03:44:26.583Z,13.88
2022-12-22T03:46:55.960Z,17.52
2022-12-22T03:49:26.863Z,26.38
2022-12-22T03:51:56.063Z,12.60
2022-12-22T03:54:26.126Z,15.30
2022-12-22T03:56:55.560Z,12.60
2022-12-22T03:59:24.684Z,15.27
2022-12-22T04:01:55.120Z,13.80
2022-12-22T04:04:25.553Z,13.15
2022-12-22T04:06:56.688Z,12.32
2022-12-22T04:09:27.394Z,16.20
2022-12-22T04:12:13.513Z,15.93
2022-12-22T04:14:42.823Z,18.45
2022-12-22T04:17:12.086Z,16.05
2022-12-22T04:19:41.690Z,17.10
2022-12-22T04:22:12.482Z,14.63
2022-12-22T04:24:41.476Z,12.43
2022-12-22T04:27:10.874Z,13.30
2022-12-22T04:29:40.139Z,14.93
2022-12-22T04:32:09.340Z,12.25
2022-12-22T04:34:38.650Z,17.17
2022-12-22T04:37:16.771Z,14.27
2022-12-22T04:39:48.553Z,15.10
2022-12-22T04:42:18.028Z,17.47
2022-12-22T04:44:47.161Z,14.98
2022-12-22T04:47:16.466Z,13.18
2022-12-22T04:49:45.531Z,13.90
2022-12-22T04:52:14.925Z,13.60
2022-12-22T04:54:44.161Z,15.38
2022-12-22T04:57:14.996Z,10.68
2022-12-22T04:59:44.234Z,13.82
2022-12-22T05:02:13.951Z,15.57
2022-12-22T05:04:43.213Z,10.40
2022-12-22T05:07:13.389Z,12.77
2022-12-22T05:09:42.825Z,11.88
2022-12-22T05:12:29.428Z,12.35
2022-12-22T05:15:00.190Z,9.70
2022-12-22T05:17:29.563Z,12.63
2022-12-22T05:19:58.722Z,10.52
2022-12-22T05:22:28.110Z,10.15
2022-12-22T05:24:57.866Z,9.73
2022-12-22T05:27:29.462Z,8.95
2022-12-22T05:30:00.179Z,11.02
2022-12-22T05:32:29.662Z,9.15
2022-12-22T05:34:59.068Z,9.52
2022-12-22T05:37:28.869Z,11.93
2022-12-22T05:39:58.403Z,11.23
2022-12-22T05:42:40.010Z,9.80
2022-12-22T05:45:12.399Z,15.57
2022-12-22T05:47:41.737Z,12.88
2022-12-22T05:50:11.817Z,9.20
2022-12-22T05:52:41.431Z,8.70
2022-12-22T05:55:11.499Z,8.52
2022-12-22T05:57:41.032Z,11.27
2022-12-22T06:00:13.669Z,9.82
2022-12-22T06:02:43.482Z,8.95
2022-12-22T06:05:13.827Z,12.57
2022-12-22T06:07:43.052Z,12.25
2022-12-22T06:10:14.295Z,10.45
2022-12-22T06:12:44.323Z,11.57
2022-12-22T06:15:15.788Z,10.43
2022-12-22T06:17:45.579Z,11.60
2022-12-22T06:20:15.240Z,12.48
2022-12-22T06:22:44.379Z,12.75
2022-12-22T06:25:18.596Z,12.32
2022-12-22T06:27:48.635Z,12.40
2022-12-22T06:30:19.426Z,14.18
2022-12-22T06:32:48.505Z,7.72
2022-12-22T06:35:17.934Z,7.60
2022-12-22T06:37:47.127Z,8.93
2022-12-22T06:40:16.535Z,8.38
2022-12-22T06:43:08.308Z,8.80
2022-12-22T06:45:41.098Z,6.47
2022-12-22T06:50:39.216Z,7.55
2022-12-22T06:53:08.814Z,8.77
2022-12-22T06:55:38.893Z,7.50
2022-12-22T06:58:08.491Z,6.50
2022-12-22T07:00:38.080Z,6.10
2022-12-22T07:03:09.559Z,7.20
2022-12-22T07:05:38.964Z,4.55
2022-12-22T07:08:09.415Z,5.25
2022-12-22T07:10:56.436Z,7.38
2022-12-22T07:13:26.026Z,6.80
2022-12-22T07:16:00.754Z,10.07
2022-12-22T07:18:33.654Z,7.57
2022-12-22T07:21:03.505Z,6.97
2022-12-22T07:23:32.805Z,9.45
2022-12-22T07:26:02.670Z,6.93
2022-12-22T07:28:34.268Z,7.13
2022-12-22T07:31:03.634Z,8.18
2022-12-22T07:33:35.305Z,11.63
2022-12-22T07:36:07.085Z,7.55
2022-12-22T07:41:26.336Z,9.63
2022-12-22T07:43:54.829Z,7.47
2022-12-22T07:46:24.392Z,9.82
2022-12-22T07:49:12.706Z,9.00
2022-12-22T07:51:42.409Z,11.65
2022-12-22T07:54:12.907Z,10.73
2022-12-22T07:56:45.077Z,11.98
2022-12-22T07:59:14.604Z,10.30
2022-12-22T08:01:45.791Z,13.35
2022-12-22T08:04:17.015Z,12.13
2022-12-22T08:06:48.423Z,15.00
2022-12-22T08:09:18.199Z,9.80
2022-12-22T08:11:49.210Z,10.00
2022-12-22T08:14:18.317Z,11.63
2022-12-22T08:16:47.552Z,15.43
2022-12-22T08:19:17.976Z,15.20
2022-12-22T08:21:52.427Z,21.15
2022-12-22T08:24:22.497Z,17.60
2022-12-22T08:26:53.852Z,16.85
2022-12-22T08:29:24.545Z,11.88
2022-12-22T08:31:53.753Z,17.98
2022-12-22T08:34:26.117Z,14.88
2022-12-22T08:36:57.121Z,14.48
2022-12-22T08:39:33.526Z,17.98
2022-12-22T08:42:10.126Z,16.88
2022-12-22T08:44:46.219Z,17.50
2022-12-22T08:47:18.227Z,12.00
2022-12-22T08:49:51.588Z,15.25
2022-12-22T08:52:21.375Z,14.65
2022-12-22T08:54:54.111Z,12.40
2022-12-22T08:57:24.109Z,12.98
2022-12-22T08:59:56.809Z,15.55
2022-12-22T09:02:27.006Z,16.40
2022-12-22T09:04:58.113Z,16.13
2022-12-22T09:07:27.656Z,16.50
2022-12-22T09:09:58.082Z,14.30
2022-12-22T09:12:30.068Z,15.15
2022-12-22T09:14:59.526Z,12.93
2022-12-22T09:17:31.163Z,8.77
2022-12-22T09:20:02.437Z,10.30
2022-12-22T09:22:31.662Z,8.75
2022-12-22T09:25:00.996Z,8.45
2022-12-22T09:27:31.987Z,8.10
2022-12-22T09:30:01.531Z,6.38
2022-12-22T09:32:32.229Z,7.25
2022-12-22T09:35:02.781Z,8.23
2022-12-22T09:37:44.196Z,6.60
2022-12-22T09:40:18.653Z,5.37
2022-12-22T09:42:49.064Z,6.78
2022-12-22T09:45:20.985Z,5.93
2022-12-22T09:47:53.837Z,7.03
2022-12-22T09:50:26.169Z,6.55
2022-12-22T09:52:56.895Z,5.25
2022-12-22T09:55:34.088Z,7.28
2022-12-22T09:58:04.663Z,5.30
2022-12-22T10:00:37.670Z,6.43
2022-12-22T10:03:14.372Z,5.40
2022-12-22T10:05:47.214Z,5.95
2022-12-22T10:08:30.381Z,4.22
2022-12-22T10:10:59.429Z,6.22
2022-12-22T10:13:29.262Z,8.05
2022-12-22T10:16:01.547Z,3.83
2022-12-22T10:18:32.298Z,7.15
2022-12-22T10:21:19.721Z,5.75
2022-12-22T10:23:50.443Z,3.50
2022-12-22T10:26:31.168Z,5.55
2022-12-22T10:29:01.952Z,4.95
2022-12-22T10:31:32.265Z,6.00
2022-12-22T10:34:12.507Z,5.10
2022-12-22T10:36:42.951Z,6.30
2022-12-22T10:39:14.997Z,7.53
2022-12-22T10:44:26.142Z,7.25
2022-12-22T10:49:25.212Z,7.50
2022-12-22T10:51:55.443Z,8.50
2022-12-22T10:54:33.614Z,9.40
2022-12-22T10:57:05.870Z,8.38
2022-12-22T10:59:37.850Z,13.70
2022-12-22T11:04:36.785Z,14.75
2022-12-22T11:07:10.472Z,14.48
2022-12-22T11:09:41.302Z,14.30
2022-12-22T11:12:17.438Z,16.02
2022-12-22T11:14:50.887Z,22.02
2022-12-22T11:17:27.093Z,17.23
2022-12-22T11:20:07.299Z,12.60
2022-12-22T11:22:42.250Z,20.08
2022-12-22T11:25:23.228Z,19.80
2022-12-22T11:27:57.873Z,12.50
2022-12-22T11:30:32.581Z,17.58
2022-12-22T11:33:17.902Z,17.70
2022-12-22T11:35:56.168Z,11.55
2022-12-22T11:38:34.155Z,19.23
2022-12-22T11:41:10.647Z,11.00
2022-12-22T11:43:48.459Z,11.50
2022-12-22T11:46:24.588Z,16.75
2022-12-22T11:49:15.492Z,9.00
2022-12-22T11:51:51.897Z,16.92
2022-12-22T11:54:33.539Z,8.95
2022-12-22T11:57:12.891Z,9.98
2022-12-22T11:59:49.683Z,11.98
2022-12-22T12:03:30.872Z,12.93
2022-12-22T12:05:51.717Z,12.82
2022-12-22T12:08:29.700Z,8.90
2022-12-22T12:11:11.300Z,14.68
2022-12-22T12:13:52.800Z,9.35
2022-12-22T12:16:28.956Z,10.20
2022-12-22T12:19:09.447Z,5.85
2022-12-22T12:21:44.889Z,9.15
2022-12-22T12:24:33.158Z,5.55
2022-12-22T12:27:08.213Z,10.35
2022-12-22T12:29:39.985Z,10.48
2022-12-22T12:32:18.701Z,8.90
2022-12-22T12:34:55.474Z,6.70
2022-12-22T12:37:38.616Z,7.57
2022-12-22T12:40:30.014Z,11.02
2022-12-22T12:43:01.472Z,9.35
2022-12-22T12:45:41.283Z,8.50
2022-12-22T12:48:40.721Z,7.78
2022-12-22T12:51:28.774Z,14.88
2022-12-22T12:54:13.749Z,7.32
2022-12-22T12:57:03.418Z,9.48
2022-12-22T12:59:47.796Z,9.70
2022-12-22T13:02:46.967Z,12.32
2022-12-22T13:05:37.974Z,16.45
2022-12-22T13:08:19.275Z,12.77
2022-12-22T13:11:13.879Z,10.70
2022-12-22T13:13:47.886Z,11.80
2022-12-22T13:16:25.327Z,14.05
2022-12-22T13:18:58.604Z,11.57
2022-12-22T13:24:25.704Z,20.73
2022-12-22T13:26:57.651Z,18.70
2022-12-22T13:29:36.750Z,11.87
2022-12-22T13:32:16.140Z,10.88
2022-12-22T13:35:29.171Z,13.20
2022-12-22T13:37:47.600Z,12.23
2022-12-22T13:40:20.767Z,12.10
2022-12-22T13:42:52.740Z,13.05
2022-12-22T13:45:28.739Z,17.52
2022-12-22T13:48:07.872Z,16.98
2022-12-22T13:50:45.135Z,17.52
2022-12-22T13:56:21.721Z,9.88
2022-12-22T13:58:55.541Z,11.30
2022-12-22T14:01:25.756Z,14.38
2022-12-22T14:04:01.900Z,14.38
2022-12-22T14:06:41.727Z,14.63
2022-12-22T14:09:12.488Z,12.95
2022-12-22T14:11:50.729Z,11.60
2022-12-22T14:14:22.896Z,10.63
2022-12-22T14:16:53.494Z,15.75
2022-12-22T14:19:24.085Z,12.60
2022-12-22T14:21:59.945Z,12.50
2022-12-22T14:24:36.166Z,9.32
2022-12-22T14:27:18.331Z,9.52
2022-12-22T14:29:47.671Z,13.13
2022-12-22T14:32:32.125Z,10.07
2022-12-22T14:35:03.482Z,13.52
2022-12-22T14:37:33.408Z,6.77
2022-12-22T14:40:02.734Z,14.98
2022-12-22T14:42:35.383Z,11.15
2022-12-22T14:45:04.881Z,7.35
2022-12-22T14:47:38.018Z,8.25
2022-12-22T14:50:17.686Z,12.93
2022-12-22T14:52:49.616Z,7.88
2022-12-22T14:55:27.624Z,7.43
2022-12-22T14:57:59.750Z,12.35
2022-12-22T15:00:31.161Z,10.80
2022-12-22T15:03:01.532Z,9.10
2022-12-22T15:05:33.399Z,10.20
2022-12-22T15:08:06.204Z,9.55
2022-12-22T15:10:58.008Z,19.63
2022-12-22T15:13:28.937Z,7.38
2022-12-22T15:15:58.377Z,13.35
2022-12-22T15:18:29.217Z,12.13
2022-12-22T15:20:59.608Z,7.03
2022-12-22T15:23:28.911Z,9.10
2022-12-22T15:25:58.440Z,6.10
2022-12-22T15:28:29.241Z,8.85
2022-12-22T15:31:01.067Z,10.82
2022-12-22T15:33:33.815Z,7.72
2022-12-22T15:36:03.597Z,8.77
2022-12-22T15:38:38.559Z,8.30
2022-12-22T15:41:08.788Z,10.57
2022-12-22T15:43:57.809Z,7.30
2022-12-22T15:46:27.951Z,10.48
2022-12-22T15:48:57.258Z,13.85
2022-12-22T15:51:27.641Z,13.25
2022-12-22T15:53:58.791Z,15.13
2022-12-22T15:56:29.178Z,13.05
2022-12-22T15:59:03.446Z,13.77
2022-12-22T16:01:34.238Z,11.13
2022-12-22T16:04:03.703Z,15.57
2022-12-22T16:06:33.618Z,12.05
2022-12-22T16:09:03.123Z,13.93
2022-12-22T16:11:32.334Z,20.23
2022-12-22T16:14:07.828Z,21.77
2022-12-22T16:16:37.388Z,17.40
2022-12-22T16:19:09.306Z,22.70
2022-12-22T16:21:40.264Z,18.67
2022-12-22T16:24:17.476Z,16.50
2022-12-22T16:26:50.658Z,18.98
2022-12-22T16:29:21.612Z,25.38
2022-12-22T16:31:51.147Z,27.73
2022-12-22T16:34:20.553Z,27.13
2022-12-22T16:36:54.012Z,31.42
2022-12-22T16:39:23.253Z,30.70
2022-12-22T16:41:59.993Z,26.83
2022-12-22T16:44:31.405Z,22.13
2022-12-22T16:47:06.966Z,31.23
2022-12-22T16:49:44.626Z,38.03
2022-12-22T16:52:19.102Z,24.17
2022-12-22T16:54:52.555Z,27.30
2022-12-22T16:57:22.371Z,22.13
2022-12-22T16:59:55.413Z,28.95
2022-12-22T17:02:31.570Z,27.67
2022-12-22T17:05:02.623Z,31.48
2022-12-22T17:07:34.330Z,28.27
2022-12-22T17:10:04.118Z,27.38
2022-12-22T17:12:36.143Z,34.33
2022-12-22T17:15:08.626Z,24.17
2022-12-22T17:17:42.119Z,21.55
2022-12-22T17:20:17.492Z,24.55
2022-12-22T17:22:49.183Z,25.08
2022-12-22T17:25:19.632Z,26.05
2022-12-22T17:27:52.902Z,27.10
2022-12-22T17:30:24.605Z,31.20
2022-12-22T17:32:53.971Z,21.63
2022-12-22T17:35:28.956Z,23.63
2022-12-22T17:37:58.429Z,33.28
2022-12-22T17:40:31.331Z,25.73
2022-12-22T17:43:00.792Z,26.92
2022-12-22T17:45:31.397Z,22.92
2022-12-22T17:48:00.762Z,27.02
2022-12-22T17:50:30.048Z,22.05
2022-12-22T17:52:59.453Z,22.98
2022-12-22T17:56:06.450Z,21.23
2022-12-22T17:58:19.333Z,18.17
2022-12-22T18:00:50.029Z,22.02
2022-12-22T18:03:21.252Z,18.73
2022-12-22T18:05:50.968Z,24.83
2022-12-22T18:08:22.137Z,28.13
2022-12-22T18:10:51.708Z,29.67
2022-12-22T18:13:24.462Z,32.10
2022-12-22T18:15:56.493Z,17.00
2022-12-22T18:18:26.129Z,22.55
2022-12-22T18:21:05.674Z,21.67
2022-12-22T18:23:37.929Z,20.08
2022-12-22T18:26:08.582Z,22.55
2022-12-22T18:28:38.922Z,21.08
2022-12-22T18:31:09.791Z,21.17
2022-12-22T18:33:39.298Z,18.58
2022-12-22T18:36:08.995Z,25.33
2022-12-22T18:38:38.443Z,15.95
2022-12-22T18:41:07.929Z,22.08
2022-12-22T18:43:37.677Z,26.40
2022-12-22T18:46:07.241Z,19.58
2022-12-22T18:48:40.366Z,29.60
2022-12-22T18:51:18.285Z,16.25
2022-12-22T18:53:49.838Z,22.38
2022-12-22T18:56:19.639Z,22.05
2022-12-22T18:58:48.770Z,24.70
2022-12-22T19:01:26.644Z,18.40
2022-12-22T19:03:59.503Z,20.27
2022-12-22T19:06:29.324Z,20.35
2022-12-22T19:09:01.713Z,20.85
2022-12-22T19:11:32.752Z,19.00
2022-12-22T19:14:02.220Z,19.87
2022-12-22T19:16:32.391Z,13.02
2022-12-22T19:19:03.639Z,13.25
2022-12-22T19:21:33.547Z,12.82
2022-12-22T19:24:04.062Z,13.57
2022-12-22T19:26:33.489Z,17.45
2022-12-22T19:29:04.545Z,19.50
2022-12-22T19:31:35.048Z,14.23
2022-12-22T19:34:07.348Z,16.42
2022-12-22T19:36:36.989Z,14.77
2022-12-22T19:39:06.890Z,16.77
2022-12-22T19:41:40.199Z,13.90
2022-12-22T19:44:16.386Z,9.30
2022-12-22T19:46:46.981Z,15.50
2022-12-22T19:49:19.538Z,13.00
2022-12-22T19:51:51.296Z,12.98
2022-12-22T19:54:21.016Z,11.43
2022-12-22T19:56:55.690Z,9.77
2022-12-22T19:59:33.976Z,11.73
2022-12-22T20:02:20.076Z,15.13
2022-12-22T20:04:54.665Z,11.75
2022-12-22T20:07:26.285Z,15.20
2022-12-22T20:09:58.786Z,14.50
2022-12-22T20:12:38.554Z,10.52
2022-12-22T20:15:17.234Z,16.63
2022-12-22T20:17:47.857Z,10.57
2022-12-22T20:20:21.822Z,11.32
2022-12-22T20:22:53.451Z,10.90
2022-12-22T20:27:56.682Z,12.60
2022-12-22T20:30:27.250Z,9.52
2022-12-22T20:32:57.956Z,18.13
2022-12-22T20:35:32.518Z,10.15
2022-12-22T20:38:13.090Z,9.30
2022-12-22T20:40:42.926Z,10.82
2022-12-22T20:43:14.778Z,8.65
2022-12-22T20:45:46.600Z,9.70
2022-12-22T20:48:21.336Z,9.90
2022-12-22T20:50:52.330Z,8.88
2022-12-22T20:53:22.533Z,8.07
2022-12-22T20:55:53.874Z,6.10
2022-12-22T20:58:24.853Z,9.70
2022-12-22T21:00:57.636Z,8.23
2022-12-22T21:03:28.567Z,4.03
2022-12-22T21:06:00.796Z,7.45
2022-12-22T21:08:30.385Z,9.83
2022-12-22T21:11:00.467Z,7.20
2022-12-22T21:13:30.237Z,6.88
2022-12-22T21:16:03.005Z,8.85
2022-12-22T21:18:35.251Z,13.10
2022-12-22T21:21:08.716Z,7.57
2022-12-22T21:23:39.429Z,7.20
2022-12-22T21:26:17.858Z,8.43
2022-12-22T21:28:47.792Z,6.47
2022-12-22T21:31:18.907Z,10.23
2022-12-22T21:33:50.414Z,6.40
2022-12-22T21:36:25.423Z,6.20
2022-12-22T21:38:58.478Z,7.25
2022-12-22T21:41:42.137Z,5.50
2022-12-22T21:44:13.035Z,10.07
2022-12-22T21:46:49.002Z,3.95
2022-12-22T21:49:19.985Z,3.72
2022-12-22T21:51:52.105Z,4.35
2022-12-22T21:54:33.918Z,3.58
2022-12-22T21:57:04.863Z,1.52
2022-12-22T21:59:34.493Z,3.85
2022-12-22T22:02:06.050Z,2.25
2022-12-22T22:04:35.934Z,4.80
2022-12-22T22:07:06.884Z,3.42
2022-12-22T22:09:37.750Z,1.02
2022-12-22T22:12:28.403Z,1.40
2022-12-22T22:15:03.095Z,1.73
2022-12-22T22:17:33.712Z,1.58
2022-12-22T22:20:04.070Z,2.38
2022-12-22T22:22:35.866Z,1.73
2022-12-22T22:25:08.706Z,4.00
2022-12-22T22:27:48.207Z,2.13
2022-12-22T22:30:19.401Z,2.40
2022-12-22T22:32:51.728Z,2.30
2022-12-22T22:35:26.943Z,3.45
2022-12-22T22:38:01.120Z,1.45
2022-12-22T22:40:32.523Z,2.05
2022-12-22T22:43:02.972Z,1.42
2022-12-22T22:45:33.920Z,0.90
2022-12-22T22:48:10.461Z,2.25
2022-12-22T22:50:42.477Z,3.10
2022-12-22T22:53:18.211Z,2.50
2022-12-22T22:55:55.029Z,2.67
2022-12-22T22:58:26.383Z,1.60
2022-12-22T23:00:58.202Z,1.25
2022-12-22T23:03:32.963Z,1.05
2022-12-22T23:06:07.864Z,2.70
2022-12-22T23:08:42.774Z,1.90
2022-12-22T23:11:15.667Z,1.60
2022-12-22T23:13:49.214Z,2.47
2022-12-22T23:16:24.509Z,1.55
2022-12-22T23:18:57.387Z,1.00
2022-12-22T23:21:28.354Z,0.60
2022-12-22T23:24:01.029Z,1.17
2022-12-22T23:26:31.000Z,1.55
2022-12-22T23:29:04.030Z,1.70
2022-12-22T23:31:33.785Z,1.52
2022-12-22T23:34:04.430Z,1.75
2022-12-22T23:36:37.299Z,1.35
2022-12-22T23:39:10.416Z,1.88
2022-12-22T23:41:54.393Z,2.20
2022-12-22T23:44:25.336Z,2.92
2022-12-22T23:46:55.576Z,0.93
2022-12-22T23:49:25.414Z,1.38
2022-12-22T23:51:55.853Z,1.50
2022-12-22T23:54:30.552Z,0.80
2022-12-22T23:57:00.688Z,1.48
2022-12-22T23:59:30.853Z,1.55
